Terminal Aerodrome Forecast
Issued by NWS Amarillo, TX

Home | Current Version | Previous Version | Text Only | Print | Product List | Glossary On
Versions: 1 2 3 4 5 6 7 8 9 10 11 12 13
948
FTUS44 KAMA 130520
TAFDHT
TAF
KDHT 130520Z 1306/1406 18010KT P6SM SKC
     FM131600 21021G29KT P6SM FEW300
     FM140000 20010KT P6SM BKN250=

USA.gov is the U.S. government's official web portal to all federal, state and local government web resources and services.